Time;durP1;ratioP1;P1;durP2;ratioP2;P2;SDS_P1;SDS_P2;PMS_P1;PMS_P2;Temp;Humidity;BMP_temperature;BMP_pressure;BME280_temperature;BME280_humidity;BME280_pressure;Samples;Min_cycle;Max_cycle;Signal;HPM_P1;HPM_P2
2022/08/29 00:02:18;;;;;;;;;;;11.80;99.90;;;;;;5095444;28;20020;-62
2022/08/29 00:04:44;;;;;;;;;;;11.70;99.90;;;;;;5095082;28;20286;-62
2022/08/29 00:07:10;;;;;;;;;;;11.70;99.90;;;;;;5095288;28;20472;-62
2022/08/29 00:09:35;;;;;;;;;;;11.70;99.90;;;;;;5095159;28;20014;-62
2022/08/29 00:12:01;;;;;;;;;;;11.70;99.90;;;;;;5094671;28;19912;-62
2022/08/29 00:14:27;;;;;;;;;;;11.60;99.90;;;;;;5094897;28;20358;-62
2022/08/29 00:16:52;;;;;;;;;;;11.60;99.90;;;;;;5077120;28;20338;-62
2022/08/29 00:19:18;;;;;;;;;;;11.60;99.90;;;;;;5095109;28;19912;-62
2022/08/29 00:21:43;;;;;;;;;;;11.60;99.90;;;;;;5076752;28;20370;-62
2022/08/29 00:24:09;;;;;;;;;;;11.50;99.90;;;;;;5094999;28;19908;-62
2022/08/29 00:26:34;;;;;;;;;;;11.50;99.90;;;;;;5094712;28;20338;-62
2022/08/29 00:29:00;;;;;;;;;;;11.50;99.90;;;;;;5094398;28;19924;-62
2022/08/29 00:31:25;;;;;;;;;;;11.40;99.90;;;;;;5094865;28;20361;-62
2022/08/29 00:33:51;;;;;;;;;;;11.40;99.90;;;;;;5094807;28;20346;-62
2022/08/29 00:36:16;;;;;;;;;;;11.40;99.90;;;;;;5094745;28;19958;-62
2022/08/29 00:38:42;;;;;;;;;;;11.40;99.90;;;;;;5094740;28;19908;-61
2022/08/29 00:41:08;;;;;;;;;;;11.30;99.90;;;;;;5094662;28;19912;-62
2022/08/29 00:43:35;;;;;;;;;;;11.40;99.90;;;;;;5094640;28;20049;-61
2022/08/29 00:46:21;;;;;;;;;;;11.40;99.90;;;;;;5076545;28;19912;-62
2022/08/29 00:48:50;;;;;;;;;;;11.40;99.90;;;;;;5094036;28;19912;-63
2022/08/29 00:51:16;;;;;;;;;;;11.30;99.90;;;;;;5094513;28;20372;-62
2022/08/29 00:53:44;;;;;;;;;;;11.30;99.90;;;;;;5094195;28;19908;-62
2022/08/29 00:56:11;;;;;;;;;;;11.20;99.90;;;;;;5076079;28;19953;-62
2022/08/29 00:58:41;;;;;;;;;;;11.20;99.90;;;;;;5076041;28;19908;-62
2022/08/29 01:01:06;;;;;;;;;;;11.20;99.90;;;;;;5094076;28;19908;-62
2022/08/29 01:03:33;;;;;;;;;;;11.10;99.90;;;;;;5094316;28;19957;-62
2022/08/29 01:05:59;;;;;;;;;;;11.10;99.90;;;;;;5094017;28;19908;-62
2022/08/29 01:08:25;;;;;;;;;;;11.00;99.90;;;;;;5094171;28;20032;-62
2022/08/29 01:13:38;;;;;;;;;;;11.10;99.90;;;;;;5093695;28;20011;-62
2022/08/29 01:16:05;;;;;;;;;;;11.10;99.90;;;;;;5094169;28;19916;-61
2022/08/29 01:18:33;;;;;;;;;;;11.00;99.90;;;;;;5093872;28;19908;-62
2022/08/29 01:21:12;;;;;;;;;;;11.10;99.90;;;;;;5075701;28;20481;-62
2022/08/29 01:23:42;;;;;;;;;;;11.10;99.90;;;;;;5093909;28;19912;-62
2022/08/29 01:26:09;;;;;;;;;;;11.10;99.90;;;;;;5093742;28;19915;-62
2022/08/29 01:28:38;;;;;;;;;;;11.00;99.90;;;;;;5093474;28;19926;-62
2022/08/29 01:31:05;;;;;;;;;;;11.10;99.90;;;;;;5093972;28;19909;-62
2022/08/29 01:33:52;;;;;;;;;;;11.10;99.90;;;;;;5093673;28;20286;-62
2022/08/29 01:36:20;;;;;;;;;;;11.10;99.90;;;;;;5093604;28;19953;-61
2022/08/29 01:38:46;;;;;;;;;;;11.10;99.90;;;;;;5093624;28;20280;-62
2022/08/29 01:41:12;;;;;;;;;;;11.20;99.90;;;;;;5093899;28;19912;-62
2022/08/29 01:43:41;;;;;;;;;;;11.20;99.90;;;;;;5093562;28;19912;-62
2022/08/29 01:46:07;;;;;;;;;;;11.20;99.90;;;;;;5093589;28;19915;-62
2022/08/29 01:48:34;;;;;;;;;;;11.20;99.90;;;;;;5093516;28;19912;-62
2022/08/29 01:51:00;;;;;;;;;;;11.20;99.90;;;;;;5075766;28;19962;-62
2022/08/29 01:53:25;;;;;;;;;;;11.20;99.90;;;;;;5093756;28;19951;-62
2022/08/29 01:55:51;;;;;;;;;;;11.20;99.90;;;;;;5093477;28;19965;-62
2022/08/29 01:58:16;;;;;;;;;;;11.10;99.90;;;;;;5093452;28;19908;-62
2022/08/29 02:00:42;;;;;;;;;;;11.20;99.90;;;;;;5093681;28;19915;-62
2022/08/29 02:03:07;;;;;;;;;;;11.20;99.90;;;;;;5093678;28;19931;-61
2022/08/29 02:05:32;;;;;;;;;;;11.10;99.90;;;;;;5093640;28;19916;-62
2022/08/29 02:07:59;;;;;;;;;;;11.10;99.90;;;;;;5093300;28;20418;-63
2022/08/29 02:10:24;;;;;;;;;;;11.10;99.90;;;;;;5093646;28;19908;-62
2022/08/29 02:12:50;;;;;;;;;;;11.10;99.90;;;;;;5093360;28;20006;-61
2022/08/29 02:15:17;;;;;;;;;;;11.10;99.90;;;;;;5093597;28;20276;-61
2022/08/29 02:17:43;;;;;;;;;;;11.00;99.90;;;;;;5093548;28;19908;-62
2022/08/29 02:20:09;;;;;;;;;;;11.00;99.90;;;;;;5093524;28;20374;-62
2022/08/29 02:22:36;;;;;;;;;;;10.80;99.90;;;;;;5093490;28;19912;-62
2022/08/29 02:25:39;;;;;;;;;;;10.80;99.90;;;;;;5093496;28;19950;-62
2022/08/29 02:27:50;;;;;;;;;;;10.80;99.90;;;;;;5092862;28;19920;-62
2022/08/29 02:30:16;;;;;;;;;;;10.80;99.90;;;;;;5093381;28;19912;-61
2022/08/29 02:32:41;;;;;;;;;;;10.80;99.90;;;;;;5093139;28;20424;-62
2022/08/29 02:35:07;;;;;;;;;;;10.70;99.90;;;;;;5093369;28;19908;-61
2022/08/29 02:37:32;;;;;;;;;;;10.70;99.90;;;;;;5078416;28;19912;-62
2022/08/29 02:39:58;;;;;;;;;;;10.60;99.90;;;;;;5096997;28;19994;-62
2022/08/29 02:42:23;;;;;;;;;;;10.60;99.90;;;;;;5096718;28;19931;-62
2022/08/29 02:44:49;;;;;;;;;;;10.60;99.90;;;;;;5096644;28;19912;-62
2022/08/29 02:47:15;;;;;;;;;;;;;;;;;;5096590;28;20410;-61
2022/08/29 02:49:42;;;;;;;;;;;;;;;;;;5096726;28;20365;-62
2022/08/29 02:52:09;;;;;;;;;;;;;;;;;;5096501;28;19957;-61
2022/08/29 02:54:36;;;;;;;;;;;;;;;;;;5096423;28;19912;-61
2022/08/29 02:57:07;;;;;;;;;;;;;;;;;;5096347;28;19912;-62
2022/08/29 02:59:33;;;;;;;;;;;;;;;;;;5096393;28;19908;-62
2022/08/29 03:01:59;;;;;;;;;;;;;;;;;;5096329;28;19969;-62
2022/08/29 03:04:25;;;;;;;;;;;;;;;;;;5096225;28;19950;-62
2022/08/29 03:06:51;;;;;;;;;;;;;;;;;;5096199;28;19908;-61
2022/08/29 03:09:16;;;;;;;;;;;10.30;99.90;;;;;;5096341;28;19919;-62
2022/08/29 03:11:42;;;;;;;;;;;10.30;99.90;;;;;;5096381;28;19908;-62
2022/08/29 03:14:07;;;;;;;;;;;10.20;99.90;;;;;;5096096;28;20328;-62
2022/08/29 03:16:33;;;;;;;;;;;10.20;99.90;;;;;;5096272;28;19908;-62
2022/08/29 03:18:59;;;;;;;;;;;10.10;99.90;;;;;;5096275;28;19914;-62
2022/08/29 03:21:25;;;;;;;;;;;10.00;99.90;;;;;;5096226;28;20290;-61
2022/08/29 03:23:51;;;;;;;;;;;10.00;99.90;;;;;;5095924;28;19962;-62
2022/08/29 03:26:17;;;;;;;;;;;10.00;99.90;;;;;;5096133;28;20320;-61
2022/08/29 03:28:43;;;;;;;;;;;10.00;99.90;;;;;;5095569;28;20017;-61
2022/08/29 03:31:08;;;;;;;;;;;9.90;99.90;;;;;;5096055;28;19908;-62
2022/08/29 03:33:34;;;;;;;;;;;9.90;99.90;;;;;;5095992;28;19908;-61
2022/08/29 03:36:00;;;;;;;;;;;9.90;99.90;;;;;;5096012;28;19908;-62
2022/08/29 03:38:25;;;;;;;;;;;9.90;99.90;;;;;;5095871;28;19958;-61
2022/08/29 03:40:51;;;;;;;;;;;9.90;99.90;;;;;;5095576;28;19948;-62
2022/08/29 03:43:20;;;;;;;;;;;9.80;99.90;;;;;;5095811;28;20315;-62
2022/08/29 03:45:47;;;;;;;;;;;9.80;99.90;;;;;;5095785;28;20387;-62
2022/08/29 03:48:13;;;;;;;;;;;9.80;99.90;;;;;;5095352;28;20367;-61
2022/08/29 03:50:38;;;;;;;;;;;9.80;99.90;;;;;;5077310;28;19958;-62
2022/08/29 03:53:04;;;;;;;;;;;9.80;99.90;;;;;;5095436;28;19958;-62
2022/08/29 03:55:29;;;;;;;;;;;9.80;99.90;;;;;;5095522;28;19931;-63
2022/08/29 03:57:55;;;;;;;;;;;9.80;99.90;;;;;;5095236;28;20354;-62
2022/08/29 04:00:20;;;;;;;;;;;9.80;99.90;;;;;;5095475;28;19908;-62
2022/08/29 04:02:46;;;;;;;;;;;9.80;99.90;;;;;;5095434;28;19908;-62
2022/08/29 04:05:13;;;;;;;;;;;9.70;99.90;;;;;;5095045;28;19961;-62
2022/08/29 04:07:40;;;;;;;;;;;9.70;99.90;;;;;;5095340;28;20358;-61
2022/08/29 04:10:07;;;;;;;;;;;9.60;99.90;;;;;;5077125;28;19918;-62
2022/08/29 04:12:32;;;;;;;;;;;9.60;99.90;;;;;;5095231;28;19908;-61
2022/08/29 04:14:58;;;;;;;;;;;9.60;99.90;;;;;;5094902;28;20002;-62
2022/08/29 04:17:23;;;;;;;;;;;9.60;99.90;;;;;;5095140;28;20366;-62
2022/08/29 04:19:49;;;;;;;;;;;9.60;99.90;;;;;;5095047;28;19908;-62
2022/08/29 04:22:14;;;;;;;;;;;9.60;99.90;;;;;;5094726;28;19908;-62
2022/08/29 04:24:40;;;;;;;;;;;9.60;99.90;;;;;;5094739;28;19912;-61
2022/08/29 04:27:05;;;;;;;;;;;9.60;99.90;;;;;;5094933;28;19952;-62
2022/08/29 04:29:32;;;;;;;;;;;9.60;99.90;;;;;;5094433;28;19924;-62
2022/08/29 04:31:58;;;;;;;;;;;9.60;99.90;;;;;;5094619;28;19908;-62
2022/08/29 04:34:23;;;;;;;;;;;9.70;99.90;;;;;;5076437;28;19957;-62
2022/08/29 04:36:49;;;;;;;;;;;9.70;99.90;;;;;;5094471;28;20284;-62
2022/08/29 04:39:14;;;;;;;;;;;9.70;99.90;;;;;;5094709;28;19915;-61
2022/08/29 04:41:41;;;;;;;;;;;9.70;99.90;;;;;;5094687;28;19908;-62
2022/08/29 04:44:08;;;;;;;;;;;9.70;99.90;;;;;;5094626;28;19914;-62
2022/08/29 04:46:34;;;;;;;;;;;9.80;99.90;;;;;;5076152;28;19994;-62
2022/08/29 04:48:59;;;;;;;;;;;9.80;99.90;;;;;;5094518;28;20016;-62
2022/08/29 04:51:25;;;;;;;;;;;9.80;99.90;;;;;;5094531;28;19909;-62
2022/08/29 04:53:51;;;;;;;;;;;9.90;99.90;;;;;;5094196;28;20386;-61
2022/08/29 04:56:18;;;;;;;;;;;10.00;99.90;;;;;;5094225;28;19995;-62
2022/08/29 04:58:43;;;;;;;;;;;10.00;99.90;;;;;;5093700;28;19916;-62
2022/08/29 05:01:13;;;;;;;;;;;10.00;99.90;;;;;;5094104;28;19908;-61
2022/08/29 05:03:38;;;;;;;;;;;10.10;99.90;;;;;;5075960;28;19915;-62
2022/08/29 05:06:06;;;;;;;;;;;10.10;99.90;;;;;;5094002;28;20359;-62
2022/08/29 05:08:32;;;;;;;;;;;10.20;99.90;;;;;;5094121;28;19916;-62
2022/08/29 05:10:57;;;;;;;;;;;10.30;99.90;;;;;;5076229;28;19953;-61
2022/08/29 05:13:23;;;;;;;;;;;10.40;99.90;;;;;;5094195;28;19991;-61
2022/08/29 05:15:49;;;;;;;;;;;10.50;99.90;;;;;;5075900;28;20440;-62
2022/08/29 05:18:16;;;;;;;;;;;10.60;99.90;;;;;;5093819;28;19950;-62
2022/08/29 05:20:42;;;;;;;;;;;10.80;99.90;;;;;;5094083;28;19912;-61
2022/08/29 05:23:08;;;;;;;;;;;11.10;99.90;;;;;;5094044;28;19929;-62
2022/08/29 05:25:34;;;;;;;;;;;11.30;99.90;;;;;;5094032;28;19954;-61
2022/08/29 05:27:59;;;;;;;;;;;11.60;99.90;;;;;;5093739;28;20318;-62
2022/08/29 05:30:25;;;;;;;;;;;11.70;99.90;;;;;;5093618;28;20270;-62
2022/08/29 05:32:51;;;;;;;;;;;11.90;99.90;;;;;;5093939;28;19912;-62
2022/08/29 05:35:17;;;;;;;;;;;12.00;99.90;;;;;;5093664;28;19950;-62
2022/08/29 05:37:42;;;;;;;;;;;12.30;99.90;;;;;;5093594;28;19908;-62
2022/08/29 05:40:08;;;;;;;;;;;12.50;99.90;;;;;;5093895;28;19908;-62
2022/08/29 05:42:33;;;;;;;;;;;12.60;99.90;;;;;;5093569;28;19948;-62
2022/08/29 05:44:59;;;;;;;;;;;12.90;99.90;;;;;;5093553;28;20263;-62
2022/08/29 05:47:24;;;;;;;;;;;13.30;99.90;;;;;;5093513;28;19908;-62
2022/08/29 05:49:50;;;;;;;;;;;13.80;99.90;;;;;;5093475;28;19912;-62
2022/08/29 05:52:16;;;;;;;;;;;14.30;99.90;;;;;;5093817;28;19914;-62
2022/08/29 05:54:42;;;;;;;;;;;15.30;99.90;;;;;;5093786;28;19912;-63
2022/08/29 05:57:09;;;;;;;;;;;16.60;99.90;;;;;;5093667;28;20316;-63
2022/08/29 05:59:35;;;;;;;;;;;17.40;99.90;;;;;;5093716;28;19908;-62
2022/08/29 06:02:01;;;;;;;;;;;17.70;99.90;;;;;;5093730;28;20330;-63
2022/08/29 06:04:26;;;;;;;;;;;17.40;99.90;;;;;;5075315;28;19908;-63
2022/08/29 06:06:52;;;;;;;;;;;17.00;99.90;;;;;;5075281;28;19915;-62
2022/08/29 06:09:17;;;;;;;;;;;16.90;99.90;;;;;;5093537;28;19912;-63
2022/08/29 06:11:45;;;;;;;;;;;16.80;99.90;;;;;;5096501;28;20037;-62
2022/08/29 06:14:12;;;;;;;;;;;17.20;99.90;;;;;;5097158;28;19912;-63
2022/08/29 06:16:38;;;;;;;;;;;17.40;99.90;;;;;;5097193;28;19912;-62
2022/08/29 06:19:03;;;;;;;;;;;18.60;99.90;;;;;;5097337;28;19947;-62
2022/08/29 06:21:29;;;;;;;;;;;18.90;99.90;;;;;;5109840;28;20431;-63
2022/08/29 06:23:55;;;;;;;;;;;19.00;99.90;;;;;;5117650;28;19915;-63
2022/08/29 06:26:20;;;;;;;;;;;19.20;99.90;;;;;;5112597;28;19957;-63
2022/08/29 06:28:46;;;;;;;;;;;19.10;99.90;;;;;;5108440;28;19927;-63
2022/08/29 06:31:14;;;;;;;;;;;19.10;99.90;;;;;;5100636;28;20404;-63
2022/08/29 06:33:40;;;;;;;;;;;20.00;99.90;;;;;;5089729;28;20354;-66
2022/08/29 06:36:07;;;;;;;;;;;20.90;99.90;;;;;;5095528;28;19919;-63
2022/08/29 06:38:33;;;;;;;;;;;21.20;99.90;;;;;;5099911;28;20328;-64
2022/08/29 06:41:02;;;;;;;;;;;20.50;99.90;;;;;;5104059;28;20376;-63
2022/08/29 06:43:28;;;;;;;;;;;20.70;99.90;;;;;;5085835;28;19919;-67
2022/08/29 06:45:53;;;;;;;;;;;20.50;99.90;;;;;;5103732;28;19912;-64
2022/08/29 06:48:19;;;;;;;;;;;20.90;99.90;;;;;;5067348;28;19981;-64
2022/08/29 06:50:44;;;;;;;;;;;21.80;99.90;;;;;;5105453;28;20378;-63
2022/08/29 06:53:10;;;;;;;;;;;22.00;99.90;;;;;;5099825;28;19912;-63
2022/08/29 06:55:36;;;;;;;;;;;22.30;99.90;;;;;;5107086;28;19912;-65
2022/08/29 06:58:02;;;;;;;;;;;22.70;99.90;;;;;;5098185;28;20092;-64
2022/08/29 07:00:28;;;;;;;;;;;23.00;99.30;;;;;;5089953;28;20052;-65
2022/08/29 07:02:53;;;;;;;;;;;22.90;99.40;;;;;;5098113;28;19922;-64
2022/08/29 07:05:20;;;;;;;;;;;23.20;99.70;;;;;;5082960;28;19982;-64
2022/08/29 07:07:45;;;;;;;;;;;24.10;97.90;;;;;;5093138;28;19973;-63
2022/08/29 07:10:13;;;;;;;;;;;24.30;96.60;;;;;;5093195;28;19920;-63
2022/08/29 07:12:39;;;;;;;;;;;23.90;95.80;;;;;;5058656;28;19923;-64
2022/08/29 07:15:04;;;;;;;;;;;23.20;96.80;;;;;;5096984;28;20342;-65
2022/08/29 07:17:30;;;;;;;;;;;22.70;97.80;;;;;;5093649;28;19912;-63
2022/08/29 07:19:55;;;;;;;;;;;22.10;98.60;;;;;;5095626;28;19912;-63
2022/08/29 07:22:21;;;;;;;;;;;21.80;99.90;;;;;;5099180;28;19916;-63
2022/08/29 07:24:46;;;;;;;;;;;22.00;99.90;;;;;;5111477;28;20356;-63
2022/08/29 07:27:12;;;;;;;;;;;21.90;99.90;;;;;;5074373;28;20409;-63
2022/08/29 07:29:38;;;;;;;;;;;21.70;99.90;;;;;;5090427;28;19928;-63
2022/08/29 07:32:04;;;;;;;;;;;22.20;99.90;;;;;;5096942;28;20282;-65
2022/08/29 07:34:30;;;;;;;;;;;22.30;99.70;;;;;;5095087;28;19920;-66
2022/08/29 07:36:55;;;;;;;;;;;22.40;99.90;;;;;;5087435;28;19913;-65
2022/08/29 07:39:21;;;;;;;;;;;22.70;98.60;;;;;;5082122;28;19964;-66
2022/08/29 07:41:47;;;;;;;;;;;22.90;98.50;;;;;;5078387;28;19958;-64
2022/08/29 07:44:16;;;;;;;;;;;23.10;98.10;;;;;;5097449;28;19955;-64
2022/08/29 07:46:42;;;;;;;;;;;24.10;95.70;;;;;;5095260;28;19916;-65
2022/08/29 07:49:07;;;;;;;;;;;24.10;94.90;;;;;;5096046;28;19923;-64
2022/08/29 07:51:33;;;;;;;;;;;23.90;93.60;;;;;;5073667;28;19913;-65
2022/08/29 07:53:58;;;;;;;;;;;25.20;93.10;;;;;;5092541;28;19913;-66
2022/08/29 07:56:27;;;;;;;;;;;24.90;90.80;;;;;;5088459;28;19912;-66
2022/08/29 07:58:53;;;;;;;;;;;24.70;91.50;;;;;;5073621;28;19912;-65
2022/08/29 08:01:18;;;;;;;;;;;25.50;91.10;;;;;;5086972;28;19948;-64
2022/08/29 08:03:44;;;;;;;;;;;25.80;90.20;;;;;;5093796;28;19912;-64
2022/08/29 08:06:10;;;;;;;;;;;26.10;87.70;;;;;;5098873;28;19951;-65
2022/08/29 08:08:36;;;;;;;;;;;25.20;89.40;;;;;;5092419;28;19935;-64
2022/08/29 08:11:03;;;;;;;;;;;24.60;90.80;;;;;;5096586;28;19939;-65
2022/08/29 08:13:29;;;;;;;;;;;24.00;92.10;;;;;;5084497;28;20018;-65
2022/08/29 08:15:54;;;;;;;;;;;24.00;91.70;;;;;;5084709;28;20309;-65
2022/08/29 08:18:21;;;;;;;;;;;22.80;93.30;;;;;;5089967;28;19916;-64
2022/08/29 08:20:47;;;;;;;;;;;22.30;94.20;;;;;;5089067;28;19920;-64
2022/08/29 08:23:13;;;;;;;;;;;21.80;96.40;;;;;;5087523;28;20019;-64
2022/08/29 08:25:39;;;;;;;;;;;;;;;;;;5093078;28;19912;-64
2022/08/29 08:28:04;;;;;;;;;;;20.90;97.20;;;;;;5095093;28;19943;-64
2022/08/29 08:30:30;;;;;;;;;;;21.10;96.90;;;;;;5100485;28;19916;-64
2022/08/29 08:32:56;;;;;;;;;;;21.60;97.50;;;;;;5075531;28;19909;-64
2022/08/29 08:35:21;;;;;;;;;;;22.40;96.70;;;;;;5104534;28;19919;-64
2022/08/29 08:37:48;;;;;;;;;;;23.00;94.90;;;;;;5094797;28;19913;-65
2022/08/29 08:40:18;;;;;;;;;;;23.00;94.80;;;;;;5097032;28;20296;-62
2022/08/29 08:42:44;;;;;;;;;;;22.90;94.20;;;;;;5091082;28;19912;-63
2022/08/29 08:45:14;;;;;;;;;;;22.30;95.20;;;;;;5093491;28;19957;-62
2022/08/29 08:47:42;;;;;;;;;;;22.30;95.80;;;;;;5085672;28;20398;-64
2022/08/29 08:50:25;;;;;;;;;;;22.40;96.10;;;;;;5092968;28;19923;-65
2022/08/29 08:52:57;;;;;;;;;;;22.30;96.40;;;;;;5091880;28;19935;-64
2022/08/29 08:55:32;;;;;;;;;;;22.40;96.20;;;;;;5093380;28;19908;-62
2022/08/29 08:58:01;;;;;;;;;;;23.20;95.40;;;;;;5066149;28;19912;-61
2022/08/29 09:00:30;;;;;;;;;;;23.90;94.00;;;;;;5096216;28;20358;-62
2022/08/29 09:03:02;;;;;;;;;;;24.40;92.20;;;;;;5090372;28;20324;-63
2022/08/29 09:05:39;;;;;;;;;;;24.20;92.30;;;;;;5091381;28;19912;-62
2022/08/29 09:08:11;;;;;;;;;;;24.80;91.40;;;;;;5088754;28;19916;-63
2022/08/29 09:10:56;;;;;;;;;;;24.90;90.30;;;;;;5096638;28;20382;-63
2022/08/29 09:13:42;;;;;;;;;;;24.60;90.90;;;;;;5092343;28;19916;-63
2022/08/29 09:16:14;;;;;;;;;;;24.10;92.20;;;;;;5090711;28;19915;-63
2022/08/29 09:18:43;;;;;;;;;;;24.70;91.50;;;;;;5093935;28;19912;-63
2022/08/29 09:21:11;;;;;;;;;;;24.60;91.70;;;;;;5093281;28;19927;-62
2022/08/29 09:23:43;;;;;;;;;;;24.90;91.40;;;;;;5058821;28;19917;-64
2022/08/29 09:26:08;;;;;;;;;;;24.40;92.00;;;;;;5095083;28;19912;-64
2022/08/29 09:28:34;;;;;;;;;;;25.40;90.10;;;;;;5086445;28;19920;-64
2022/08/29 09:31:19;;;;;;;;;;;25.90;89.90;;;;;;5089783;28;20263;-62
2022/08/29 09:33:54;;;;;;;;;;;26.20;88.00;;;;;;5101481;28;19954;-62
2022/08/29 09:36:39;;;;;;;;;;;24.90;90.20;;;;;;5090005;28;19926;-62
2022/08/29 09:39:14;;;;;;;;;;;23.90;91.80;;;;;;5097152;28;19969;-63
2022/08/29 09:41:40;;;;;;;;;;;23.90;93.00;;;;;;5077488;28;19954;-61
2022/08/29 09:44:08;;;;;;;;;;;24.80;92.60;;;;;;5100276;28;20370;-61
2022/08/29 09:46:33;;;;;;;;;;;25.90;91.30;;;;;;5112518;28;19912;-61
2022/08/29 09:49:01;;;;;;;;;;;26.60;88.00;;;;;;5081328;28;19923;-62
2022/08/29 09:51:29;;;;;;;;;;;26.00;87.50;;;;;;5089662;28;19919;-61
2022/08/29 09:54:15;;;;;;;;;;;26.10;88.90;;;;;;5096025;28;19911;-61
2022/08/29 09:56:50;;;;;;;;;;;24.90;88.60;;;;;;5101654;28;19918;-61
2022/08/29 09:59:25;;;;;;;;;;;24.10;91.40;;;;;;5109312;28;19990;-62
2022/08/29 10:02:07;;;;;;;;;;;25.20;90.90;;;;;;5094727;28;19958;-62
2022/08/29 10:04:35;;;;;;;;;;;26.20;87.40;;;;;;5074158;28;20313;-63
2022/08/29 10:07:20;;;;;;;;;;;27.70;85.90;;;;;;5087176;28;19912;-62
2022/08/29 10:09:56;;;;;;;;;;;27.20;83.20;;;;;;5088805;28;20451;-63
2022/08/29 10:12:25;;;;;;;;;;;27.80;81.10;;;;;;5084165;28;20358;-63
2022/08/29 10:14:53;;;;;;;;;;;27.10;82.10;;;;;;5110984;28;20007;-62
2022/08/29 10:20:10;;;;;;;;;;;26.60;84.20;;;;;;5088914;28;20680;-61
2022/08/29 10:22:55;;;;;;;;;;;26.30;84.00;;;;;;5090457;28;20024;-62
2022/08/29 10:25:38;;;;;;;;;;;26.00;85.30;;;;;;5095229;28;19912;-61
2022/08/29 10:28:16;;;;;;;;;;;25.10;87.00;;;;;;5091597;28;20011;-62
2022/08/29 10:30:55;;;;;;;;;;;24.10;90.80;;;;;;5083290;28;19943;-61
2022/08/29 10:33:28;;;;;;;;;;;24.10;90.50;;;;;;5082327;28;19912;-62
2022/08/29 10:35:57;;;;;;;;;;;24.10;90.50;;;;;;5086641;28;20293;-61
2022/08/29 10:38:42;;;;;;;;;;;23.90;91.30;;;;;;5079479;28;20290;-62
2022/08/29 10:41:27;;;;;;;;;;;24.60;90.30;;;;;;5103745;28;20286;-62
2022/08/29 10:44:01;;;;;;;;;;;24.70;90.20;;;;;;5091191;28;20323;-62
2022/08/29 10:46:35;;;;;;;;;;;24.60;90.00;;;;;;5096110;28;20007;-64
2022/08/29 10:49:12;;;;;;;;;;;24.30;90.70;;;;;;5092293;28;20331;-62
2022/08/29 10:51:58;;;;;;;;;;;24.00;91.00;;;;;;5096698;28;19947;-62
2022/08/29 10:54:43;;;;;;;;;;;24.00;91.90;;;;;;5094799;28;21274;-62
2022/08/29 10:57:12;;;;;;;;;;;23.60;91.40;;;;;;5083386;28;19965;-65
2022/08/29 10:59:50;;;;;;;;;;;23.50;92.70;;;;;;5097474;28;19916;-62
2022/08/29 11:02:34;;;;;;;;;;;23.60;91.60;;;;;;5074666;28;19920;-62
2022/08/29 11:05:00;;;;;;;;;;;;;;;;;;5089894;28;19959;-62
2022/08/29 11:07:30;;;;;;;;;;;23.00;93.00;;;;;;5089692;28;20346;-63
2022/08/29 11:09:59;;;;;;;;;;;23.30;92.70;;;;;;5092422;28;19927;-63
2022/08/29 11:12:35;;;;;;;;;;;24.10;93.00;;;;;;5093776;28;19919;-64
2022/08/29 11:15:07;;;;;;;;;;;24.70;90.90;;;;;;5085396;28;20009;-63
2022/08/29 11:17:34;;;;;;;;;;;25.30;90.50;;;;;;5087135;28;20386;-63
2022/08/29 11:20:10;;;;;;;;;;;25.60;90.60;;;;;;5089424;28;19920;-63
2022/08/29 11:22:40;;;;;;;;;;;24.90;89.40;;;;;;5063781;28;20392;-64
2022/08/29 11:25:08;;;;;;;;;;;24.00;91.30;;;;;;5091227;28;19919;-62
2022/08/29 11:27:55;;;;;;;;;;;24.20;91.50;;;;;;5069654;28;19913;-62
2022/08/29 11:30:26;;;;;;;;;;;24.40;91.50;;;;;;5092461;28;19951;-63
2022/08/29 11:33:12;;;;;;;;;;;24.10;91.40;;;;;;5093329;28;20358;-62
2022/08/29 11:35:44;;;;;;;;;;;23.90;91.50;;;;;;5094050;28;20381;-62
2022/08/29 11:38:30;;;;;;;;;;;23.30;92.30;;;;;;5096671;28;20278;-62
2022/08/29 11:41:15;;;;;;;;;;;23.20;93.20;;;;;;5093562;28;19915;-64
2022/08/29 11:43:43;;;;;;;;;;;23.50;92.70;;;;;;5095232;28;19912;-61
2022/08/29 11:46:09;;;;;;;;;;;24.40;92.30;;;;;;5094204;28;19919;-62
2022/08/29 11:48:40;;;;;;;;;;;24.60;90.90;;;;;;5088845;28;19997;-61
2022/08/29 11:51:25;;;;;;;;;;;24.90;91.20;;;;;;5098074;28;19919;-62
2022/08/29 11:53:51;;;;;;;;;;;24.80;91.20;;;;;;5076984;28;19912;-61
2022/08/29 11:56:22;;;;;;;;;;;24.60;91.60;;;;;;5097067;28;19919;-62
2022/08/29 11:58:48;;;;;;;;;;;24.00;91.20;;;;;;5092467;28;19912;-62
2022/08/29 12:01:34;;;;;;;;;;;24.20;91.70;;;;;;5097058;28;19912;-62
2022/08/29 12:04:03;;;;;;;;;;;24.10;91.70;;;;;;5091996;28;19920;-64
2022/08/29 12:09:22;;;;;;;;;;;25.10;91.00;;;;;;5064053;28;19923;-62
2022/08/29 12:14:44;;;;;;;;;;;24.70;91.40;;;;;;5069338;28;19925;-63
2022/08/29 12:17:29;;;;;;;;;;;24.90;91.00;;;;;;5052103;28;20380;-62
2022/08/29 12:19:58;;;;;;;;;;;24.90;90.80;;;;;;5046998;28;19967;-63
2022/08/29 12:22:44;;;;;;;;;;;25.10;90.60;;;;;;5049396;28;19913;-63
2022/08/29 12:25:29;;;;;;;;;;;24.90;90.90;;;;;;5048606;28;20018;-63
2022/08/29 12:27:59;;;;;;;;;;;24.80;90.90;;;;;;5049842;28;20394;-61
2022/08/29 12:30:25;;;;;;;;;;;24.30;90.60;;;;;;5043178;28;20027;-62
2022/08/29 12:32:56;;;;;;;;;;;24.00;91.50;;;;;;5048429;28;19917;-62
2022/08/29 12:35:26;;;;;;;;;;;24.30;92.20;;;;;;5049284;28;20346;-63
2022/08/29 12:38:07;;;;;;;;;;;24.70;91.60;;;;;;5051707;28;19947;-62
2022/08/29 12:40:52;;;;;;;;;;;24.90;91.00;;;;;;5051150;28;20410;-63
2022/08/29 12:43:34;;;;;;;;;;;25.30;89.50;;;;;;5048428;28;19912;-62
2022/08/29 12:46:01;;;;;;;;;;;24.70;90.20;;;;;;5046370;28;20003;-62
2022/08/29 12:48:32;;;;;;;;;;;25.00;90.30;;;;;;5044315;28;19920;-62
2022/08/29 12:50:57;;;;;;;;;;;25.30;89.90;;;;;;5047107;28;19920;-63
2022/08/29 12:53:25;;;;;;;;;;;25.50;90.00;;;;;;5047064;28;19920;-61
2022/08/29 12:55:55;;;;;;;;;;;25.10;90.20;;;;;;5050819;28;20303;-61
2022/08/29 12:58:37;;;;;;;;;;;25.30;89.40;;;;;;5050157;28;19913;-62
2022/08/29 13:01:05;;;;;;;;;;;25.50;90.00;;;;;;5047068;28;19975;-62
2022/08/29 13:03:32;;;;;;;;;;;25.80;88.60;;;;;;5045902;28;19913;-62
2022/08/29 13:06:01;;;;;;;;;;;25.80;89.60;;;;;;5049998;28;19916;-63
2022/08/29 13:08:29;;;;;;;;;;;26.10;87.40;;;;;;5047682;28;20356;-62
2022/08/29 13:10:57;;;;;;;;;;;26.00;88.00;;;;;;5047909;28;19913;-61
2022/08/29 13:13:23;;;;;;;;;;;26.10;86.20;;;;;;5054178;28;19928;-62
2022/08/29 13:15:50;;;;;;;;;;;25.80;89.10;;;;;;5066465;28;19920;-63
2022/08/29 13:18:16;;;;;;;;;;;25.90;87.90;;;;;;5051936;28;19919;-61
2022/08/29 13:20:44;;;;;;;;;;;25.60;87.30;;;;;;5063242;28;19924;-62
2022/08/29 13:25:52;;;;;;;;;;;26.20;86.00;;;;;;5070458;28;19923;-63
2022/08/29 13:28:28;;;;;;;;;;;26.00;85.20;;;;;;5068078;28;19919;-62
2022/08/29 13:31:13;;;;;;;;;;;25.90;86.50;;;;;;5070862;28;19917;-62
2022/08/29 13:33:49;;;;;;;;;;;26.20;86.40;;;;;;5066311;28;20268;-62
2022/08/29 13:36:35;;;;;;;;;;;26.30;85.80;;;;;;5067399;28;19935;-63
2022/08/29 13:39:23;;;;;;;;;;;26.10;84.50;;;;;;5069874;28;19978;-62
2022/08/29 13:42:04;;;;;;;;;;;26.50;84.80;;;;;;5075010;28;19965;-63
2022/08/29 13:44:35;;;;;;;;;;;26.60;84.60;;;;;;5065569;28;20371;-62
2022/08/29 13:47:01;;;;;;;;;;;26.80;83.40;;;;;;5074362;28;20007;-64
2022/08/29 13:49:28;;;;;;;;;;;26.60;83.50;;;;;;5068586;28;19913;-62
2022/08/29 13:51:54;;;;;;;;;;;26.40;83.00;;;;;;5069692;28;19960;-63
2022/08/29 13:54:19;;;;;;;;;;;26.20;84.00;;;;;;5063094;28;19974;-65
2022/08/29 13:56:48;;;;;;;;;;;25.90;85.30;;;;;;5062015;28;19913;-62
2022/08/29 13:59:15;;;;;;;;;;;26.10;86.20;;;;;;5062515;28;19913;-62
2022/08/29 14:01:41;;;;;;;;;;;26.10;85.20;;;;;;5046711;28;19917;-62
2022/08/29 14:04:06;;;;;;;;;;;26.20;86.10;;;;;;5061598;28;20062;-62
2022/08/29 14:06:32;;;;;;;;;;;26.10;84.90;;;;;;5068771;28;19913;-62
2022/08/29 14:08:58;;;;;;;;;;;25.40;86.10;;;;;;5069013;28;19935;-63
2022/08/29 14:11:24;;;;;;;;;;;25.10;88.70;;;;;;5069059;28;19923;-62
2022/08/29 14:13:50;;;;;;;;;;;25.20;89.40;;;;;;5053068;28;19956;-63
2022/08/29 14:16:15;;;;;;;;;;;24.90;89.20;;;;;;5063556;28;20414;-62
2022/08/29 14:18:41;;;;;;;;;;;25.10;89.70;;;;;;5057729;28;19920;-63
2022/08/29 14:21:06;;;;;;;;;;;25.50;88.70;;;;;;5058608;28;19913;-63
2022/08/29 14:23:32;;;;;;;;;;;25.40;88.00;;;;;;5061344;28;19920;-63
2022/08/29 14:25:57;;;;;;;;;;;24.90;89.30;;;;;;5089002;28;19912;-62
2022/08/29 14:28:23;;;;;;;;;;;24.60;90.60;;;;;;5087738;28;19970;-62
2022/08/29 14:30:49;;;;;;;;;;;24.40;90.40;;;;;;5087628;28;20375;-63
2022/08/29 14:33:14;;;;;;;;;;;24.20;90.80;;;;;;5084441;28;19937;-63
2022/08/29 14:35:40;;;;;;;;;;;24.20;90.80;;;;;;5082558;28;20028;-63
2022/08/29 14:38:05;;;;;;;;;;;24.60;90.00;;;;;;5075713;28;19913;-63
2022/08/29 14:40:31;;;;;;;;;;;24.90;88.50;;;;;;5075072;28;20264;-63
2022/08/29 14:42:58;;;;;;;;;;;25.20;89.50;;;;;;5059993;28;19913;-63
2022/08/29 14:45:23;;;;;;;;;;;25.20;89.00;;;;;;5075737;28;19916;-63